Draper, South Dakota
Current Conditions -  °F | °C
As of 11:53 AM on Wednesday 28 Jan 2015 (Local Time) from KPIR Reporting Station
Clear Clear  
Wind Chill: 42°   Ceiling: Unl
Heat Index: 49°   Visibility: 10mi
Dew Point: 34°   Wind: 20mph
Humidity: 56%   Direction: 300°WNW
Pressure: 29.74"   Gusts: NA
Location:  43.93°N, 100.54°W
Report Text: KPIR 281753Z AUTO 30017KT 10SM CLR 09/01 A2974 RMK AO2 SLP080 T00940011 10094 21028 53005
Loading
Personal Weather Stations






























Interactive Weather Map New forecast layout! Learn more

10-Day Weather Forecast

Advertisements
Track Severe Weather on mobile